| time (UTC) | temp C | wind direction | speed KPH | gust KPH | rain 1hr cm | rain 24hr cm | rain mn cm | humidity % | barometer mb |
| 20260506183021 | 16 | 114 | 1.6 | 9.7 | 0.13 | 0.71 | 0.71 | 90 | 1007.1 |
| 20260506182507 | 16 | 107 | 0.0 | 3.2 | 0.13 | 0.71 | 0.71 | 90 | 1007.2 |
| 20260506182008 | 16 | 88 | 0.0 | 4.8 | 0.13 | 0.71 | 0.71 | 90 | 1007.2 |
| 20260506181528 | 16 | 201 | 1.6 | 9.7 | 0.13 | 0.69 | 0.69 | 90 | 1007.3 |
| 20260506181008 | 16 | 89 | 0.0 | 9.7 | 0.15 | 0.69 | 0.69 | 90 | 1007.4 |
| 20260506180504 | 16 | 113 | 1.6 | 8.0 | 0.13 | 0.66 | 0.66 | 90 | 1007.4 |
| 20260506180027 | 16 | 73 | 0.0 | 9.7 | 0.15 | 0.66 | 0.66 | 90 | 1007.4 |
| 20260506175510 | 16 | 319 | 0.0 | 9.7 | 0.15 | 0.66 | 0.66 | 90 | 1007.4 |
| 20260506175004 | 16 | 178 | 3.2 | 9.7 | 0.15 | 0.64 | 0.64 | 89 | 1007.4 |
| 20260506174523 | 16 | 203 | 0.0 | 4.8 | 0.15 | 0.64 | 0.64 | 89 | 1007.4 |
| 20260506174007 | 16 | 27 | 0.0 | 4.8 | 0.13 | 0.61 | 0.61 | 90 | 1007.5 |
| 20260506173508 | 16 | 9 | 0.0 | 4.8 | 0.15 | 0.61 | 0.61 | 89 | 1007.4 |
| 20260506173024 | 16 | 174 | 0.0 | 3.2 | 0.13 | 0.58 | 0.58 | 90 | 1007.4 |
| 20260506172505 | 16 | 309 | 0.0 | 8.0 | 0.13 | 0.58 | 0.58 | 90 | 1007.4 |
| 20260506172008 | 16 | 144 | 0.0 | 8.0 | 0.13 | 0.58 | 0.58 | 90 | 1007.5 |
| 20260506171528 | 16 | 278 | 0.0 | 3.2 | 0.10 | 0.56 | 0.56 | 90 | 1007.5 |
| 20260506171006 | 16 | 150 | 0.0 | 11.3 | 0.08 | 0.53 | 0.53 | 90 | 1007.4 |
| 20260506170515 | 16 | 86 | 0.0 | 11.3 | 0.10 | 0.53 | 0.53 | 89 | 1007.4 |
| 20260506170023 | 16 | 58 | 0.0 | 4.8 | 0.08 | 0.51 | 0.51 | 89 | 1007.5 |
| 20260506165510 | 16 | 9 | 1.6 | 6.4 | 0.10 | 0.51 | 0.51 | 89 | 1007.5 |
| 20260506165008 | 16 | 192 | 1.6 | 6.4 | 0.08 | 0.48 | 0.48 | 88 | 1007.6 |
| 20260506164518 | 16 | 155 | 1.6 | 6.4 | 0.10 | 0.48 | 0.48 | 89 | 1007.6 |
| 20260506164016 | 16 | 35 | 1.6 | 4.8 | 0.13 | 0.48 | 0.48 | 89 | 1007.5 |
| 20260506163508 | 16 | 53 | 0.0 | 9.7 | 0.15 | 0.46 | 0.46 | 88 | 1007.6 |
| 20260506163014 | 16 | 293 | 3.2 | 9.7 | 0.18 | 0.46 | 0.46 | 88 | 1007.6 |
| 20260506162507 | 16 | 197 | 1.6 | 16.1 | 0.20 | 0.46 | 0.46 | 88 | 1007.6 |
| 20260506162013 | 16 | 181 | 3.2 | 16.1 | 0.23 | 0.46 | 0.46 | 88 | 1007.7 |
| 20260506161528 | 16 | 169 | 1.6 | 12.9 | 0.23 | 0.46 | 0.46 | 88 | 1007.5 |
| 20260506161008 | 16 | 69 | 1.6 | 12.9 | 0.23 | 0.46 | 0.46 | 87 | 1007.6 |
| 20260506160506 | 16 | 111 | 4.8 | 9.7 | 0.23 | 0.43 | 0.43 | 88 | 1007.6 |
| 20260506160026 | 16 | 348 | 1.6 | 12.9 | 0.23 | 0.43 | 0.43 | 88 | 1007.7 |
| 20260506155507 | 16 | 44 | 0.0 | 12.9 | 0.20 | 0.41 | 0.41 | 88 | 1007.7 |
| 20260506155006 | 16 | 212 | 1.6 | 11.3 | 0.20 | 0.41 | 0.41 | 88 | 1007.9 |
| 20260506154532 | 16 | 67 | 1.6 | 12.9 | 0.20 | 0.38 | 0.38 | 87 | 1008.1 |
| 20260506154006 | 16 | 182 | 1.6 | 12.9 | 0.18 | 0.36 | 0.36 | 87 | 1008.5 |
| 20260506153508 | 16 | 192 | 0.0 | 6.4 | 0.13 | 0.30 | 0.30 | 87 | 1008.7 |
| 20260506153026 | 16 | 46 | 1.6 | 6.4 | 0.13 | 0.28 | 0.28 | 86 | 1008.5 |
| 20260506152509 | 16 | 232 | 0.0 | 3.2 | 0.13 | 0.25 | 0.25 | 86 | 1008.5 |
| 20260506152015 | 16 | 200 | 0.0 | 6.4 | 0.13 | 0.23 | 0.23 | 87 | 1008.2 |
| 20260506151524 | 16 | 52 | 0.0 | 11.3 | 0.15 | 0.23 | 0.23 | 86 | 1008.2 |
| 20260506151004 | 16 | 111 | 1.6 | 11.3 | 0.15 | 0.23 | 0.23 | 87 | 1008.1 |
| 20260506150503 | 16 | 128 | 1.6 | 4.8 | 0.13 | 0.20 | 0.20 | 88 | 1008.0 |
| 20260506150004 | 16 | 109 | 0.0 | 3.2 | 0.13 | 0.20 | 0.20 | 88 | 1008.1 |
| 20260506145503 | 16 | 109 | 0.0 | 4.8 | 0.13 | 0.20 | 0.20 | 88 | 1008.2 |
| 20260506145002 | 16 | 171 | 1.6 | 4.8 | 0.15 | 0.20 | 0.20 | 88 | 1008.2 |
| 20260506144507 | 16 | 103 | 0.0 | 3.2 | 0.13 | 0.18 | 0.18 | 88 | 1008.3 |
| 20260506144004 | 16 | 84 | 0.0 | 3.2 | 0.13 | 0.18 | 0.18 | 87 | 1008.3 |
| 20260506143504 | 16 | 76 | 0.0 | 1.6 | 0.13 | 0.18 | 0.18 | 86 | 1008.6 |
| 20260506143015 | 16 | 80 | 0.0 | 0.0 | 0.13 | 0.15 | 0.15 | 86 | 1008.7 |
| 20260506142504 | 16 | 130 | 0.0 | 1.6 | 0.10 | 0.13 | 0.13 | 86 | 1008.7 |
| 20260506142003 | 16 | 134 | 0.0 | 4.8 | 0.08 | 0.10 | 0.10 | 85 | 1008.8 |
| 20260506141509 | 16 | 149 | 0.0 | 6.4 | 0.08 | 0.08 | 0.08 | 85 | 1008.8 |
| 20260506141006 | 16 | 175 | 1.6 | 6.4 | 0.08 | 0.08 | 0.08 | 84 | 1008.7 |
| 20260506140503 | 16 | 195 | 0.0 | 4.8 | 0.08 | 0.08 | 0.08 | 85 | 1008.7 |
| 20260506140007 | 16 | 184 | 0.0 | 4.8 | 0.08 | 0.08 | 0.08 | 84 | 1008.5 |
| 20260506135505 | 16 | 23 | 0.0 | 3.2 | 0.08 | 0.08 | 0.08 | 85 | 1008.6 |
| 20260506135006 | 17 | 148 | 0.0 | 3.2 | 0.05 | 0.05 | 0.05 | 83 | 1008.8 |
| 20260506134511 | 17 | 98 | 0.0 | 8.0 | 0.05 | 0.05 | 0.05 | 83 | 1008.7 |
| 20260506134003 | 17 | 145 | 0.0 | 8.0 | 0.05 | 0.05 | 0.05 | 82 | 1008.8 |
| 20260506133503 | 17 | 92 | 0.0 | 4.8 | 0.05 | 0.05 | 0.05 | 82 | 1008.7 |
| 20260506133007 | 17 | 205 | 0.0 | 4.8 | 0.03 | 0.03 | 0.03 | 81 | 1008.7 |
| 20260506132505 | 17 | 109 | 0.0 | 3.2 | 0.03 | 0.03 | 0.03 | 81 | 1008.8 |
| 20260506132008 | 17 | 73 | 0.0 | 3.2 | 0.03 | 0.03 | 0.03 | 80 | 1008.9 |
| 20260506131510 | 17 | 285 | 0.0 | 8.0 | 0.00 | 0.00 | 0.00 | 80 | 1008.9 |
| 20260506131007 | 17 | 155 | 0.0 | 8.0 | 0.00 | 0.00 | 0.00 | 78 | 1008.9 |
| 20260506130505 | 18 | 158 | 0.0 | 8.0 | 0.00 | 0.00 | 0.00 | 76 | 1008.9 |
| 20260506130010 | 18 | 125 | 1.6 | 8.0 | 0.00 | 0.00 | 0.00 | 75 | 1009.0 |
| 20260506125503 | 18 | 196 | 0.0 | 3.2 | 0.00 | 0.00 | 0.00 | 75 | 1008.9 |
| 20260506125005 | 18 | 98 | 1.6 | 8.0 | 0.00 | 0.00 | 0.00 | 74 | 1008.7 |
| 20260506124510 | 18 | 315 | 1.6 | 9.7 | 0.00 | 0.00 | 0.00 | 72 | 1008.6 |
| 20260506124003 | 18 | 217 | 1.6 | 9.7 | 0.00 | 0.00 | 0.00 | 71 | 1008.7 |
| 20260506123503 | 18 | 46 | 0.0 | 4.8 | 0.00 | 0.00 | 0.00 | 72 | 1008.7 |
| 20260506123008 | 18 | 287 | 1.6 | 8.0 | 0.00 | 0.00 | 0.00 | 72 | 1008.5 |
| 20260506122503 | 18 | 314 | 3.2 | 8.0 | 0.00 | 0.00 | 0.00 | 72 | 1008.4 |
| 20260506122002 | 18 | 160 | 0.0 | 3.2 | 0.00 | 0.00 | 0.00 | 72 | 1008.3 |
| 20260506121520 | 18 | 350 | 0.0 | 8.0 | 0.00 | 0.00 | 0.00 | 72 | 1008.5 |
| 20260506121004 | 18 | 219 | 0.0 | 8.0 | 0.00 | 0.00 | 0.00 | 72 | 1008.5 |
| 20260506120504 | 18 | 153 | 1.6 | 6.4 | 0.00 | 0.00 | 0.00 | 72 | 1008.5 |
| 20260506120012 | 18 | 87 | 1.6 | 6.4 | 0.00 | 0.00 | 0.00 | 74 | 1008.5 |
| 20260506115505 | 18 | 239 | 1.6 | 6.4 | 0.00 | 0.00 | 0.00 | 73 | 1008.6 |
| 20260506115005 | 18 | 142 | 0.0 | 11.3 | 0.00 | 0.00 | 0.00 | 73 | 1008.6 |
| 20260506114510 | 18 | 122 | 1.6 | 11.3 | 0.00 | 0.00 | 0.00 | 73 | 1008.6 |
| 20260506114008 | 18 | 158 | 0.0 | 11.3 | 0.00 | 0.00 | 0.00 | 73 | 1008.7 |
| 20260506113506 | 18 | 263 | 0.0 | 11.3 | 0.00 | 0.00 | 0.00 | 73 | 1008.7 |
| 20260506113024 | 17 | 143 | 1.6 | 4.8 | 0.00 | 0.00 | 0.00 | 73 | 1008.6 |
| 20260506112506 | 17 | 155 | 0.0 | 3.2 | 0.00 | 0.00 | 0.00 | 73 | 1008.7 |
| 20260506112008 | 17 | 135 | 0.0 | 3.2 | 0.00 | 0.00 | 0.00 | 73 | 1008.7 |
| 20260506111508 | 17 | 145 | 0.0 | 4.8 | 0.00 | 0.00 | 0.00 | 73 | 1008.7 |
| 20260506111008 | 17 | 61 | 0.0 | 4.8 | 0.00 | 0.00 | 0.00 | 74 | 1008.6 |
| 20260506110503 | 17 | 73 | 1.6 | 4.8 | 0.00 | 0.00 | 0.00 | 73 | 1008.6 |
| 20260506110011 | 17 | 38 | 0.0 | 3.2 | 0.00 | 0.00 | 0.00 | 74 | 1008.4 |
| 20260506105506 | 17 | 100 | 0.0 | 4.8 | 0.00 | 0.00 | 0.00 | 73 | 1008.2 |
| 20260506105005 | 17 | 85 | 0.0 | 6.4 | 0.00 | 0.00 | 0.00 | 74 | 1008.2 |
| 20260506104505 | 17 | 81 | 0.0 | 8.0 | 0.00 | 0.00 | 0.00 | 74 | 1008.1 |
| 20260506104003 | 17 | 140 | 0.0 | 8.0 | 0.00 | 0.00 | 0.00 | 74 | 1008.1 |
| 20260506103504 | 17 | 63 | 0.0 | 3.2 | 0.00 | 0.00 | 0.00 | 74 | 1008.1 |
| 20260506103015 | 17 | 120 | 0.0 | 3.2 | 0.00 | 0.00 | 0.00 | 74 | 1008.1 |
| 20260506102503 | 17 | 92 | 0.0 | 4.8 | 0.00 | 0.00 | 0.00 | 74 | 1008.1 |
| 20260506102004 | 17 | 157 | 1.6 | 4.8 | 0.00 | 0.00 | 0.00 | 74 | 1008.2 |
| 20260506101514 | 17 | 106 | 0.0 | 6.4 | 0.00 | 0.00 | 0.00 | 74 | 1008.1 |
| 20260506101006 | 17 | 336 | 0.0 | 6.4 | 0.00 | 0.00 | 0.00 | 74 | 1008.0 |
| 20260506100505 | 16 | 286 | 0.0 | 6.4 | 0.00 | 0.00 | 0.00 | 75 | 1008.1 |
| 20260506100015 | 16 | 90 | 0.0 | 3.2 | 0.00 | 0.00 | 0.00 | 75 | 1008.3 |
| 20260506095505 | 16 | 323 | 0.0 | 3.2 | 0.00 | 0.00 | 0.00 | 75 | 1008.2 |
| 20260506095004 | 16 | 296 | 0.0 | 3.2 | 0.00 | 0.00 | 0.00 | 75 | 1008.1 |
| 20260506094516 | 16 | 289 | 0.0 | 3.2 | 0.00 | 0.00 | 0.00 | 76 | 1008.0 |
| 20260506094002 | 16 | 228 | 0.0 | 3.2 | 0.00 | 0.00 | 0.00 | 76 | 1008.0 |
| 20260506093506 | 16 | 314 | 0.0 | 3.2 | 0.00 | 0.03 | 0.00 | 76 | 1008.1 |
| 20260506093014 | 15 | 64 | 0.0 | 3.2 | 0.00 | 0.03 | 0.00 | 75 | 1008.2 |
| 20260506092504 | 15 | 348 | 1.6 | 3.2 | 0.00 | 0.03 | 0.00 | 76 | 1008.1 |
| 20260506092007 | 15 | 328 | 0.0 | 3.2 | 0.00 | 0.03 | 0.00 | 76 | 1008.1 |
| 20260506091517 | 15 | 5 | 0.0 | 3.2 | 0.00 | 0.03 | 0.00 | 76 | 1008.0 |
| 20260506091005 | 15 | 305 | 0.0 | 8.0 | 0.00 | 0.03 | 0.00 | 76 | 1008.0 |
| 20260506090505 | 15 | 238 | 0.0 | 8.0 | 0.00 | 0.03 | 0.00 | 75 | 1008.1 |
| 20260506090018 | 15 | 257 | 0.0 | 4.8 | 0.00 | 0.05 | 0.00 | 75 | 1008.2 |
| 20260506085511 | 15 | 34 | 0.0 | 3.2 | 0.00 | 0.05 | 0.00 | 76 | 1008.2 |
| 20260506085006 | 15 | 277 | 0.0 | 3.2 | 0.00 | 0.05 | 0.00 | 74 | 1008.3 |
| 20260506084510 | 15 | 360 | 0.0 | 3.2 | 0.00 | 0.05 | 0.00 | 74 | 1008.3 |
| 20260506084006 | 15 | 360 | 0.0 | 3.2 | 0.00 | 0.05 | 0.00 | 75 | 1008.3 |
| 20260506083505 | 15 | 336 | 0.0 | 1.6 | 0.00 | 0.05 | 0.00 | 75 | 1008.3 |
| 20260506083020 | 15 | 274 | 0.0 | 0.0 | 0.00 | 0.05 | 0.00 | 74 | 1008.4 |
| 20260506082505 | 16 | 299 | 0.0 | 0.0 | 0.00 | 0.05 | 0.00 | 73 | 1008.3 |
| 20260506082004 | 16 | 224 | 0.0 | 0.0 | 0.00 | 0.05 | 0.00 | 73 | 1008.4 |
| 20260506081519 | 16 | 221 | 0.0 | 0.0 | 0.00 | 0.05 | 0.00 | 71 | 1008.3 |
| 20260506081007 | 16 | 216 | 0.0 | 0.0 | 0.00 | 0.05 | 0.00 | 70 | 1008.3 |
| 20260506080505 | 16 | 197 | 0.0 | 0.0 | 0.00 | 0.05 | 0.00 | 69 | 1008.2 |
| 20260506073504 | 17 | 203 | 0.0 | 0.0 | 0.00 | 0.05 | 0.00 | 66 | 1008.4 |
| 20260506073021 | 17 | 203 | 0.0 | 3.2 | 0.00 | 0.05 | 0.00 | 66 | 1008.4 |
| 20260506072506 | 17 | 203 | 0.0 | 3.2 | 0.00 | 0.05 | 0.00 | 65 | 1008.5 |
| 20260506072006 | 17 | 203 | 0.0 | 3.2 | 0.00 | 0.05 | 0.00 | 64 | 1008.6 |
| 20260506071519 | 17 | 198 | 0.0 | 3.2 | 0.00 | 0.05 | 0.00 | 64 | 1008.5 |
| 20260506071007 | 17 | 201 | 0.0 | 3.2 | 0.00 | 0.05 | 0.00 | 64 | 1008.6 |
| 20260506070507 | 17 | 207 | 0.0 | 1.6 | 0.00 | 0.05 | 0.00 | 64 | 1008.7 |
| 20260506062508 | 18 | 296 | 0.0 | 6.4 | 0.00 | 0.05 | 0.00 | 62 | 1008.9 |
| 20260506062007 | 18 | 55 | 0.0 | 3.2 | 0.00 | 0.05 | 0.00 | 62 | 1009.0 |
| 20260506061543 | 18 | 200 | 0.0 | 8.0 | 0.00 | 0.05 | 0.00 | 61 | 1009.0 |
| 20260506061008 | 18 | 163 | 0.0 | 8.0 | 0.00 | 0.05 | 0.00 | 59 | 1009.1 |
| 20260506060507 | 18 | 230 | 0.0 | 4.8 | 0.00 | 0.05 | 0.00 | 60 | 1009.2 |
| 20260506051004 | 18 | 89 | 0.0 | 3.2 | 0.00 | 0.05 | 0.00 | 58 | 1009.3 |
| 20260506050515 | 18 | 94 | 0.0 | 3.2 | 0.00 | 0.05 | 0.00 | 58 | 1009.3 |
| 20260506045008 | 19 | 222 | 0.0 | 6.4 | 0.00 | 0.05 | 0.00 | 56 | 1009.4 |
| 20260506044523 | 19 | 113 | 0.0 | 6.4 | 0.00 | 0.05 | 0.00 | 56 | 1009.4 |
| 20260506044004 | 19 | 261 | 0.0 | 6.4 | 0.00 | 0.05 | 0.00 | 56 | 1009.4 |
| 20260506043507 | 19 | 242 | 0.0 | 6.4 | 0.00 | 0.05 | 0.00 | 55 | 1009.4 |
| 20260506043031 | 19 | 190 | 1.6 | 6.4 | 0.00 | 0.05 | 0.00 | 55 | 1009.3 |
| 20260506042506 | 19 | 41 | 0.0 | 3.2 | 0.00 | 0.05 | 0.00 | 55 | 1009.4 |
| 20260506042008 | 19 | 85 | 0.0 | 3.2 | 0.00 | 0.05 | 0.00 | 56 | 1009.4 |
| 20260506041511 | 19 | 179 | 0.0 | 8.0 | 0.00 | 0.05 | 0.00 | 56 | 1009.4 |
| 20260506041007 | 19 | 83 | 0.0 | 8.0 | 0.00 | 0.05 | 0.00 | 55 | 1009.3 |
| 20260506040506 | 19 | 58 | 0.0 | 6.4 | 0.00 | 0.05 | 0.00 | 54 | 1009.3 |
| 20260506040012 | 20 | 199 | 0.0 | 6.4 | 0.00 | 0.05 | 0.00 | 54 | 1009.4 |
| 20260506035507 | 20 | 44 | 1.6 | 4.8 | 0.00 | 0.05 | 0.05 | 54 | 1009.3 |
| 20260506035011 | 20 | 288 | 0.0 | 3.2 | 0.00 | 0.05 | 0.05 | 53 | 1009.3 |
| 20260506034527 | 20 | 360 | 0.0 | 3.2 | 0.00 | 0.05 | 0.05 | 51 | 1009.4 |
| 20260506034008 | 20 | 308 | 0.0 | 3.2 | 0.00 | 0.05 | 0.05 | 52 | 1009.3 |
| 20260506033504 | 20 | 182 | 1.6 | 3.2 | 0.00 | 0.05 | 0.05 | 51 | 1009.3 |
| 20260506033023 | 20 | 317 | 0.0 | 3.2 | 0.00 | 0.05 | 0.05 | 50 | 1009.2 |
| 20260506032506 | 20 | 39 | 0.0 | 4.8 | 0.00 | 0.05 | 0.05 | 51 | 1009.1 |
| 20260506032008 | 21 | 208 | 1.6 | 4.8 | 0.00 | 0.05 | 0.05 | 49 | 1009.2 |
| 20260506031533 | 21 | 159 | 0.0 | 4.8 | 0.00 | 0.05 | 0.05 | 50 | 1009.1 |
| 20260506031011 | 21 | 18 | 0.0 | 6.4 | 0.00 | 0.05 | 0.05 | 49 | 1009.1 |
| 20260506030509 | 21 | 161 | 0.0 | 6.4 | 0.00 | 0.05 | 0.05 | 48 | 1009.0 |
| 20260506030025 | 21 | 94 | 0.0 | 6.4 | 0.00 | 0.05 | 0.05 | 48 | 1009.0 |
| 20260506025503 | 21 | 194 | 0.0 | 6.4 | 0.00 | 0.05 | 0.05 | 47 | 1009.1 |
| 20260506025007 | 21 | 339 | 0.0 | 6.4 | 0.00 | 0.05 | 0.05 | 48 | 1009.2 |
| 20260506024537 | 21 | 315 | 1.6 | 6.4 | 0.00 | 0.05 | 0.05 | 47 | 1009.1 |
| 20260506024007 | 21 | 65 | 0.0 | 4.8 | 0.00 | 0.05 | 0.05 | 47 | 1009.1 |
| 20260506023508 | 21 | 219 | 0.0 | 6.4 | 0.00 | 0.05 | 0.05 | 46 | 1009.2 |
| 20260506023020 | 21 | 340 | 0.0 | 6.4 | 0.00 | 0.05 | 0.05 | 47 | 1009.2 |
| 20260506022515 | 21 | 327 | 1.6 | 6.4 | 0.00 | 0.05 | 0.05 | 46 | 1009.1 |
| 20260506022008 | 21 | 251 | 0.0 | 4.8 | 0.00 | 0.05 | 0.05 | 46 | 1009.1 |
| 20260506021516 | 21 | 171 | 0.0 | 4.8 | 0.00 | 0.05 | 0.05 | 46 | 1009.0 |
| 20260506021008 | 21 | 86 | 0.0 | 8.0 | 0.00 | 0.05 | 0.05 | 46 | 1009.0 |
| 20260506020507 | 21 | 105 | 3.2 | 8.0 | 0.00 | 0.05 | 0.05 | 44 | 1009.0 |
| 20260506020016 | 21 | 163 | 1.6 | 6.4 | 0.00 | 0.05 | 0.05 | 45 | 1009.0 |
| 20260506015509 | 22 | 82 | 0.0 | 4.8 | 0.00 | 0.05 | 0.05 | 45 | 1009.0 |
| 20260506015006 | 22 | 143 | 0.0 | 6.4 | 0.00 | 0.05 | 0.05 | 45 | 1009.0 |
| 20260506014530 | 22 | 302 | 1.6 | 11.3 | 0.00 | 0.05 | 0.05 | 45 | 1008.9 |
| 20260506014008 | 22 | 297 | 3.2 | 11.3 | 0.00 | 0.05 | 0.05 | 44 | 1008.8 |
| 20260506013503 | 22 | 72 | 0.0 | 3.2 | 0.00 | 0.05 | 0.05 | 45 | 1008.8 |
| 20260506013027 | 22 | 60 | 0.0 | 3.2 | 0.00 | 0.05 | 0.05 | 45 | 1008.8 |
| 20260506012507 | 22 | 48 | 0.0 | 3.2 | 0.00 | 0.05 | 0.05 | 44 | 1008.7 |
| 20260506012004 | 22 | 55 | 0.0 | 4.8 | 0.00 | 0.05 | 0.05 | 45 | 1008.7 |
| 20260506011530 | 22 | 148 | 1.6 | 6.4 | 0.00 | 0.05 | 0.05 | 44 | 1008.5 |
| 20260506011010 | 22 | 327 | 1.6 | 6.4 | 0.00 | 0.05 | 0.05 | 43 | 1008.5 |
| 20260506010508 | 22 | 352 | 0.0 | 3.2 | 0.00 | 0.05 | 0.05 | 44 | 1008.5 |
| 20260506010024 | 22 | 77 | 0.0 | 3.2 | 0.00 | 0.05 | 0.05 | 43 | 1008.5 |
| 20260506005504 | 22 | 22 | 0.0 | 3.2 | 0.00 | 0.05 | 0.05 | 44 | 1008.4 |
| 20260506005007 | 22 | 34 | 0.0 | 3.2 | 0.00 | 0.05 | 0.05 | 43 | 1008.3 |
| 20260506004523 | 23 | 117 | 0.0 | 4.8 | 0.00 | 0.05 | 0.05 | 43 | 1008.3 |
| 20260506004004 | 23 | 83 | 0.0 | 4.8 | 0.00 | 0.05 | 0.05 | 42 | 1008.3 |
| 20260506003510 | 23 | 220 | 0.0 | 8.0 | 0.00 | 0.05 | 0.05 | 43 | 1008.3 |
| 20260506003024 | 23 | 58 | 0.0 | 11.3 | 0.00 | 0.05 | 0.05 | 41 | 1008.1 |
| 20260506002511 | 23 | 182 | 3.2 | 11.3 | 0.00 | 0.05 | 0.05 | 40 | 1008.1 |
| 20260506002008 | 23 | 171 | 0.0 | 9.7 | 0.00 | 0.05 | 0.05 | 41 | 1008.1 |
| 20260506001519 | 23 | 59 | 3.2 | 9.7 | 0.00 | 0.05 | 0.05 | 41 | 1008.0 |
| 20260506001009 | 23 | 54 | 0.0 | 6.4 | 0.00 | 0.05 | 0.05 | 42 | 1008.0 |
| 20260506000509 | 23 | 146 | 1.6 | 6.4 | 0.00 | 0.05 | 0.05 | 41 | 1007.9 |
| 20260506000019 | 23 | 84 | 0.0 | 4.8 | 0.00 | 0.05 | 0.05 | 40 | 1007.9 |
| 20260505235507 | 24 | 97 | 1.6 | 4.8 | 0.00 | 0.05 | 0.05 | 41 | 1007.9 |
| 20260505235008 | 24 | 89 | 0.0 | 6.4 | 0.00 | 0.05 | 0.05 | 40 | 1007.8 |
| 20260505234526 | 24 | 61 | 1.6 | 6.4 | 0.00 | 0.05 | 0.05 | 40 | 1007.7 |
| 20260505234007 | 24 | 151 | 0.0 | 6.4 | 0.00 | 0.05 | 0.05 | 39 | 1007.6 |
| 20260505233506 | 24 | 122 | 0.0 | 11.3 | 0.00 | 0.05 | 0.05 | 41 | 1007.7 |
| 20260505233027 | 24 | 340 | 1.6 | 11.3 | 0.00 | 0.05 | 0.05 | 39 | 1007.6 |
| 20260505232512 | 24 | 62 | 0.0 | 4.8 | 0.00 | 0.05 | 0.05 | 41 | 1007.6 |
| 20260505232006 | 24 | 76 | 1.6 | 11.3 | 0.00 | 0.05 | 0.05 | 39 | 1007.6 |
| 20260505231528 | 25 | 19 | 1.6 | 12.9 | 0.00 | 0.05 | 0.05 | 39 | 1007.6 |
| 20260505231008 | 25 | 78 | 3.2 | 12.9 | 0.00 | 0.05 | 0.05 | 38 | 1007.5 |
| 20260505230509 | 25 | 51 | 3.2 | 9.7 | 0.00 | 0.05 | 0.05 | 38 | 1007.5 |
| 20260505230027 | 25 | 180 | 0.0 | 6.4 | 0.00 | 0.05 | 0.05 | 38 | 1007.4 |
| 20260505225508 | 25 | 34 | 0.0 | 4.8 | 0.00 | 0.05 | 0.05 | 39 | 1007.3 |
| 20260505225010 | 25 | 202 | 0.0 | 6.4 | 0.00 | 0.05 | 0.05 | 40 | 1007.1 |
| 20260505224523 | 25 | 229 | 1.6 | 12.9 | 0.00 | 0.05 | 0.05 | 39 | 1007.0 |
| 20260505224007 | 25 | 86 | 1.6 | 12.9 | 0.00 | 0.05 | 0.05 | 38 | 1007.1 |
| 20260505223510 | 25 | 74 | 1.6 | 8.0 | 0.00 | 0.05 | 0.05 | 39 | 1007.1 |
| 20260505223030 | 25 | 141 | 1.6 | 4.8 | 0.00 | 0.05 | 0.05 | 38 | 1007.0 |
| 20260505222509 | 25 | 74 | 0.0 | 12.9 | 0.00 | 0.05 | 0.05 | 39 | 1007.0 |
| 20260505222009 | 25 | 171 | 1.6 | 12.9 | 0.00 | 0.05 | 0.05 | 37 | 1007.0 |
| 20260505221525 | 25 | 148 | 3.2 | 11.3 | 0.00 | 0.05 | 0.05 | 38 | 1007.0 |
| 20260505221011 | 25 | 116 | 1.6 | 17.7 | 0.00 | 0.05 | 0.05 | 37 | 1007.0 |
| 20260505220509 | 25 | 67 | 6.4 | 17.7 | 0.00 | 0.05 | 0.05 | 36 | 1006.9 |
| 20260505220020 | 25 | 203 | 3.2 | 12.9 | 0.00 | 0.05 | 0.05 | 36 | 1007.0 |
| 20260505215509 | 25 | 144 | 1.6 | 12.9 | 0.00 | 0.05 | 0.05 | 37 | 1006.8 |
| 20260505215006 | 26 | 90 | 3.2 | 11.3 | 0.00 | 0.05 | 0.05 | 36 | 1006.8 |
| 20260505214523 | 26 | 119 | 3.2 | 20.9 | 0.00 | 0.05 | 0.05 | 36 | 1006.7 |
| 20260505214007 | 26 | 325 | 4.8 | 20.9 | 0.00 | 0.05 | 0.05 | 36 | 1006.6 |
| 20260505213507 | 26 | 74 | 0.0 | 14.5 | 0.00 | 0.05 | 0.05 | 35 | 1006.8 |
| 20260505213029 | 26 | 142 | 3.2 | 22.5 | 0.00 | 0.05 | 0.05 | 35 | 1006.8 |
| 20260505212503 | 26 | 103 | 3.2 | 22.5 | 0.00 | 0.05 | 0.05 | 37 | 1006.7 |
| 20260505212007 | 27 | 339 | 3.2 | 12.9 | 0.00 | 0.05 | 0.05 | 35 | 1006.7 |
| 20260505211512 | 27 | 10 | 1.6 | 19.3 | 0.00 | 0.05 | 0.05 | 37 | 1006.5 |
| 20260505211002 | 27 | 109 | 6.4 | 19.3 | 0.00 | 0.05 | 0.05 | 34 | 1006.5 |
| 20260505210508 | 27 | 30 | 4.8 | 17.7 | 0.00 | 0.05 | 0.05 | 34 | 1006.7 |
| 20260505210008 | 27 | 329 | 3.2 | 19.3 | 0.00 | 0.05 | 0.05 | 34 | 1006.5 |
| 20260505205503 | 27 | 205 | 3.2 | 19.3 | 0.00 | 0.05 | 0.05 | 37 | 1006.8 |
| 20260505205005 | 27 | 100 | 3.2 | 12.9 | 0.00 | 0.05 | 0.05 | 35 | 1006.5 |
| 20260505204506 | 28 | 192 | 1.6 | 14.5 | 0.00 | 0.05 | 0.05 | 35 | 1006.4 |
| 20260505204008 | 28 | 344 | 4.8 | 16.1 | 0.00 | 0.05 | 0.05 | 34 | 1006.5 |
| 20260505203504 | 28 | 360 | 4.8 | 16.1 | 0.00 | 0.05 | 0.05 | 35 | 1006.6 |
| 20260505203006 | 28 | 154 | 4.8 | 19.3 | 0.00 | 0.05 | 0.05 | 34 | 1006.5 |
| 20260505202507 | 28 | 186 | 3.2 | 19.3 | 0.00 | 0.05 | 0.05 | 34 | 1006.4 |
| 20260505202003 | 27 | 284 | 6.4 | 20.9 | 0.00 | 0.05 | 0.05 | 32 | 1006.6 |
| 20260505201511 | 28 | 141 | 8.0 | 20.9 | 0.00 | 0.05 | 0.05 | 30 | 1006.5 |
| 20260505201007 | 28 | 68 | 3.2 | 12.9 | 0.00 | 0.05 | 0.05 | 29 | 1006.6 |
| 20260505200505 | 28 | 331 | 3.2 | 14.5 | 0.00 | 0.05 | 0.05 | 30 | 1006.6 |
| 20260505200027 | 28 | 149 | 4.8 | 17.7 | 0.00 | 0.05 | 0.05 | 28 | 1006.7 |
| 20260505195505 | 28 | 352 | 8.0 | 19.3 | 0.00 | 0.05 | 0.05 | 29 | 1006.8 |
| 20260505195003 | 28 | 159 | 3.2 | 19.3 | 0.00 | 0.05 | 0.05 | 29 | 1007.0 |
| 20260505194520 | 28 | 258 | 3.2 | 17.7 | 0.00 | 0.05 | 0.05 | 28 | 1007.0 |
| 20260505194003 | 28 | 9 | 4.8 | 16.1 | 0.00 | 0.05 | 0.05 | 29 | 1007.0 |
| 20260505193506 | 28 | 132 | 4.8 | 11.3 | 0.00 | 0.05 | 0.05 | 31 | 1006.9 |
| 20260505193018 | 28 | 153 | 1.6 | 19.3 | 0.00 | 0.05 | 0.05 | 29 | 1007.1 |
| 20260505192504 | 28 | 85 | 1.6 | 19.3 | 0.00 | 0.05 | 0.05 | 31 | 1007.1 |
| 20260505192009 | 28 | 171 | 6.4 | 16.1 | 0.00 | 0.05 | 0.05 | 29 | 1007.1 |
| 20260505191519 | 28 | 127 | 4.8 | 16.1 | 0.00 | 0.05 | 0.05 | 30 | 1007.2 |
| 20260505191003 | 28 | 182 | 6.4 | 22.5 | 0.00 | 0.05 | 0.05 | 29 | 1007.5 |
| 20260505190507 | 28 | 155 | 6.4 | 22.5 | 0.00 | 0.05 | 0.05 | 29 | 1007.5 |
| 20260505190019 | 28 | 105 | 3.2 | 17.7 | 0.00 | 0.05 | 0.05 | 27 | 1007.6 |
| 20260505185507 | 28 | 10 | 6.4 | 24.1 | 0.00 | 0.05 | 0.05 | 29 | 1007.6 |
| 20260505185010 | 28 | 175 | 8.0 | 24.1 | 0.00 | 0.05 | 0.05 | 29 | 1007.5 |
| 20260505184512 | 28 | 86 | 4.8 | 16.1 | 0.00 | 0.05 | 0.05 | 30 | 1007.6 |
| 20260505184007 | 28 | 127 | 3.2 | 11.3 | 0.00 | 0.05 | 0.05 | 35 | 1007.7 |
| 20260505183507 | 28 | 104 | 3.2 | 19.3 | 0.00 | 0.05 | 0.05 | 34 | 1007.6 |